Time;durP1;ratioP1;P1;durP2;ratioP2;P2;SDS_P1;SDS_P2;PMS_P1;PMS_P2;Temp;Humidity;BMP_temperature;BMP_pressure;BME280_temperature;BME280_humidity;BME280_pressure;Samples;Min_cycle;Max_cycle;Signal;HPM_P1;HPM_P2
2022/07/01 00:01:42;;;;;;;32.90;19.50;;;;;;;15.17;100.00;100209.78;1632978;87;21255;-64
2022/07/01 00:04:09;;;;;;;65.47;42.07;;;;;;;15.18;100.00;100209.56;1635675;86;21492;-55
2022/07/01 00:06:37;;;;;;;68.17;41.93;;;;;;;15.26;100.00;100200.61;1632308;87;21603;-55
2022/07/01 00:09:08;;;;;;;66.47;41.97;;;;;;;15.26;100.00;100200.61;1632274;87;21480;-56
2022/07/01 00:11:35;;;;;;;;;;;;;;;15.38;100.00;100200.22;1650120;86;21092;-56
2022/07/01 00:14:02;;;;;;;44.60;29.67;;;;;;;15.46;100.00;100191.27;1654089;86;21693;-55
2022/07/01 00:16:29;;;;;;;43.80;27.63;;;;;;;15.42;100.00;100187.44;1654513;86;21107;-55
2022/07/01 00:18:57;;;;;;;44.83;26.80;;;;;;;15.43;100.00;100182.50;1655770;86;20984;-57
2022/07/01 00:21:24;;;;;;;46.07;26.00;;;;;;;15.44;100.00;100190.66;1654024;86;21030;-57
2022/07/01 00:23:51;;;;;;;44.93;27.17;;;;;;;15.38;100.00;100183.63;1654548;86;22011;-55
2022/07/01 00:26:18;;;;;;;39.07;25.47;;;;;;;15.29;100.00;100193.11;1655249;86;21245;-57
2022/07/01 00:28:45;;;;;;;41.90;24.57;;;;;;;15.23;100.00;100180.86;1656722;85;20948;-55
2022/07/01 00:31:13;;;;;;;37.17;22.80;;;;;;;15.12;100.00;100184.17;1657966;86;21000;-56
2022/07/01 00:33:41;;;;;;;40.17;22.80;;;;;;;15.12;100.00;100184.17;1663607;85;21007;-56
2022/07/01 00:36:10;;;;;;;38.73;25.90;;;;;;;15.09;100.00;100192.47;1654809;86;21006;-55
2022/07/01 00:38:37;;;;;;;45.90;29.30;;;;;;;15.05;100.00;100190.78;1663571;85;21207;-57
2022/07/01 00:41:05;;;;;;;46.83;26.27;;;;;;;15.08;100.00;100183.00;1660178;85;20944;-57
2022/07/01 00:43:38;;;;;;;44.80;29.40;;;;;;;15.22;100.00;100187.10;1652202;86;21122;-64
2022/07/01 00:46:05;;;;;;;46.23;27.93;;;;;;;15.30;100.00;100186.86;1660088;85;21038;-58
2022/07/01 00:48:33;;;;;;;46.43;26.70;;;;;;;15.39;100.00;100186.58;1658493;86;20920;-58
2022/07/01 00:51:02;;;;;;;36.97;23.83;;;;;;;15.43;100.00;100180.67;1664012;84;21476;-58
2022/07/01 00:53:29;;;;;;;39.80;23.90;;;;;;;15.46;100.00;100186.02;1662064;86;21022;-56
2022/07/01 00:55:57;;;;;;;39.73;23.23;;;;;;;15.44;100.00;100184.09;1663218;86;21573;-55
2022/07/01 00:58:28;;;;;;;39.20;25.33;;;;;;;15.37;100.00;100184.15;1661340;86;21086;-56
2022/07/01 01:00:56;;;;;;;42.17;26.27;;;;;;;15.30;100.00;100188.17;1662358;86;21145;-64
2022/07/01 01:03:23;;;;;;;44.03;26.87;;;;;;;15.29;100.00;100186.54;1665268;84;21713;-64
2022/07/01 01:05:50;;;;;;;42.17;28.93;;;;;;;15.24;100.00;100191.64;1620768;86;21355;-56
2022/07/01 01:08:20;;;;;;;50.10;30.73;;;;;;;15.17;100.00;100190.89;1633220;85;21897;-56
2022/07/01 01:10:47;;;;;;;50.17;31.83;;;;;;;15.13;100.00;100188.91;1633385;85;21061;-56
2022/07/01 01:13:15;;;;;;;42.70;30.73;;;;;;;15.08;100.00;100190.36;1632104;86;20964;-65
2022/07/01 01:15:42;;;;;;;51.43;35.10;;;;;;;15.06;100.00;100185.02;1632877;87;21754;-54
2022/07/01 01:18:11;;;;;;;49.00;33.23;;;;;;;14.99;100.00;100186.89;1634392;85;21007;-56
2022/07/01 01:20:38;;;;;;;52.80;35.60;;;;;;;14.94;100.00;100182.80;1632896;86;21109;-57
2022/07/01 01:23:05;;;;;;;51.57;35.33;;;;;;;14.90;100.00;100181.62;1632742;85;20984;-57
2022/07/01 01:25:33;;;;;;;50.17;34.47;;;;;;;14.86;100.00;100179.92;1626707;86;21090;-57
2022/07/01 01:28:01;;;;;;;49.17;32.07;;;;;;;14.82;100.00;100183.48;1631791;85;21388;-55
2022/07/01 01:30:28;;;;;;;46.83;32.57;;;;;;;14.77;100.00;100189.89;1633180;85;21142;-56
2022/07/01 01:32:56;;;;;;;49.63;34.47;;;;;;;14.72;100.00;100184.95;1624865;87;21113;-57
2022/07/01 01:35:23;;;;;;;45.77;29.20;;;;;;;14.64;100.00;100183.91;1629682;85;21006;-63
2022/07/01 01:37:51;;;;;;;31.07;21.43;;;;;;;14.57;100.00;100194.43;1632134;86;21089;-57
2022/07/01 01:40:19;;;;;;;35.03;22.50;;;;;;;14.57;100.00;100194.43;1632713;85;21164;-57
2022/07/01 01:42:48;;;;;;;35.57;20.33;;;;;;;14.58;100.00;100190.30;1632747;87;20966;-65
2022/07/01 01:45:15;;;;;;;29.70;18.00;;;;;;;14.48;100.00;100192.54;1632524;85;21032;-55
2022/07/01 01:47:42;;;;;;;28.40;18.13;;;;;;;14.49;100.00;100188.92;1633087;85;20958;-56
2022/07/01 01:50:10;;;;;;;27.20;17.50;;;;;;;14.53;100.00;100194.55;1632504;86;21103;-57
2022/07/01 01:52:42;;;;;;;26.97;17.80;;;;;;;14.49;100.00;100197.27;1632824;86;21672;-55
2022/07/01 01:55:08;;;;;;;;;;;;;;;14.48;100.00;100202.23;1635938;85;21085;-56
2022/07/01 01:57:36;;;;;;;28.90;19.33;;;;;;;14.49;100.00;100202.03;1629472;87;20461;-56
2022/07/01 02:00:07;;;;;;;29.30;19.43;;;;;;;14.48;100.00;100200.91;1633615;85;22281;-57
2022/07/01 02:02:36;;;;;;;29.27;17.67;;;;;;;14.51;100.00;100206.58;1633952;85;22304;-56
2022/07/01 02:05:07;;;;;;;29.10;18.47;;;;;;;14.58;100.00;100205.21;1631359;85;21194;-59
2022/07/01 02:07:36;;;;;;;29.47;17.97;;;;;;;14.59;100.00;100208.16;1633769;87;21122;-57
2022/07/01 02:10:04;;;;;;;30.50;17.00;;;;;;;14.64;100.00;100204.38;1626069;87;21533;-55
2022/07/01 02:12:32;;;;;;;30.77;17.63;;;;;;;14.64;100.00;100204.38;1626641;88;20956;-55
2022/07/01 02:15:00;;;;;;;29.60;17.80;;;;;;;14.70;100.00;100206.17;1621606;87;21050;-57
2022/07/01 02:17:27;;;;;;;30.50;18.30;;;;;;;14.80;100.00;100205.18;1594430;87;21289;-64
2022/07/01 02:19:55;;;;;;;25.60;17.73;;;;;;;14.90;100.00;100211.80;1637943;86;21013;-55
2022/07/01 02:22:22;;;;;;;29.00;19.30;;;;;;;15.05;100.00;100208.36;1629620;87;21050;-56
2022/07/01 02:24:50;;;;;;;25.97;18.37;;;;;;;15.21;100.00;100207.82;1627975;87;21020;-64
2022/07/01 02:27:18;;;;;;;27.43;18.17;;;;;;;15.51;100.00;100205.34;1637517;86;22384;-59
2022/07/01 02:29:45;;;;;;;28.57;19.63;;;;;;;16.01;100.00;100203.14;1629992;87;21785;-55
2022/07/01 02:32:14;;;;;;;28.33;18.40;;;;;;;16.72;100.00;100205.06;1627647;87;21276;-55
2022/07/01 02:35:52;;;;;;;36.67;20.93;;;;;;;18.00;100.00;100194.86;1783983;78;22521;-57
2022/07/01 02:38:19;;;;;;;24.70;19.07;;;;;;;19.14;100.00;100189.52;1748920;80;20935;-64
2022/07/01 02:40:53;;;;;;;27.13;20.50;;;;;;;20.09;100.00;100185.00;1653169;80;21050;-56
2022/07/01 02:43:20;;;;;;;27.30;21.47;;;;;;;20.71;100.00;100181.13;1621526;88;22228;-57
2022/07/01 02:45:48;;;;;;;33.20;22.93;;;;;;;20.78;100.00;100183.05;1639388;87;21055;-57
2022/07/01 02:48:15;;;;;;;31.43;22.33;;;;;;;20.69;100.00;100187.75;1638655;87;20984;-62
2022/07/01 02:50:43;;;;;;;33.27;23.27;;;;;;;20.54;100.00;100187.08;1639153;87;21003;-64
2022/07/01 02:53:10;;;;;;;32.27;22.60;;;;;;;20.76;100.00;100183.84;1638510;87;21733;-56
2022/07/01 02:55:37;;;;;;;31.00;22.93;;;;;;;21.35;100.00;100192.25;1638663;87;21583;-56
2022/07/01 02:58:04;;;;;;;33.07;22.47;;;;;;;21.86;100.00;100184.57;1639429;87;20988;-57
2022/07/01 03:00:31;;;;;;;32.70;23.20;;;;;;;22.19;100.00;100187.88;1637843;87;21090;-63
2022/07/01 03:02:58;;;;;;;29.77;22.67;;;;;;;22.40;100.00;100185.55;1638902;87;21488;-56
2022/07/01 03:05:25;;;;;;;30.77;23.07;;;;;;;22.52;100.00;100193.27;1638562;87;21887;-55
2022/07/01 03:07:52;;;;;;;31.60;24.53;;;;;;;22.42;100.00;100198.02;1638951;87;20995;-56
2022/07/01 03:10:21;;;;;;;30.57;23.43;;;;;;;22.74;100.00;100195.69;1639492;87;21510;-62
2022/07/01 03:12:48;;;;;;;35.83;24.67;;;;;;;22.95;100.00;100197.30;1638457;87;21011;-55
2022/07/01 03:15:15;;;;;;;36.93;27.00;;;;;;;22.78;100.00;100200.20;1639531;87;21570;-55
2022/07/01 03:17:45;;;;;;;33.97;27.80;;;;;;;22.41;100.00;100205.73;1621198;88;21886;-56
2022/07/01 03:20:14;;;;;;;36.27;27.70;;;;;;;21.98;100.00;100210.36;1652907;86;21118;-54
2022/07/01 03:22:44;;;;;;;39.30;27.87;;;;;;;21.60;100.00;100211.51;1648828;86;20991;-64
2022/07/01 03:25:11;;;;;;;35.20;27.47;;;;;;;21.21;100.00;100212.27;1653160;86;21434;-54
2022/07/01 03:27:44;;;;;;;36.67;28.03;;;;;;;20.92;100.00;100213.91;1614904;88;21598;-54
2022/07/01 03:30:10;;;;;;;38.97;28.47;;;;;;;20.71;100.00;100206.83;1653090;85;21110;-54
2022/07/01 03:32:38;;;;;;;37.13;27.87;;;;;;;20.68;100.00;100209.97;1652427;86;21074;-57
2022/07/01 03:35:35;;;;;;;38.97;28.30;;;;;;;20.69;100.00;100205.77;1652364;86;21113;-56
2022/07/01 03:37:37;;;;;;;38.70;26.33;;;;;;;20.82;100.00;100208.52;1651116;86;20940;-54
2022/07/01 03:40:06;;;;;;;37.90;27.47;;;;;;;21.38;100.00;100211.63;1647583;85;21056;-61
2022/07/01 03:42:33;;;;;;;38.00;27.20;;;;;;;22.25;100.00;100205.44;1639945;87;21697;-63
2022/07/01 03:45:00;;;;;;;34.20;26.53;;;;;;;23.22;100.00;100193.56;1640458;87;22042;-54
2022/07/01 03:47:27;;;;;;;34.47;26.60;;;;;;;24.24;100.00;100194.05;1640159;87;21024;-54
2022/07/01 03:49:55;;;;;;;32.83;24.93;;;;;;;25.33;90.57;100186.30;1639814;87;20980;-55
2022/07/01 03:52:23;;;;;;;29.15;24.20;;;;;;;26.40;79.66;100183.66;1639759;87;21031;-62
2022/07/01 03:54:50;;;;;;;27.62;24.43;;;;;;;27.54;69.92;100184.69;1631200;87;22028;-55
2022/07/01 03:57:17;;;;;;;30.77;26.97;;;;;;;29.46;54.51;100181.06;1630473;86;21068;-55
2022/07/01 03:59:46;;;;;;;35.90;30.00;;;;;;;29.46;54.51;100181.06;1641060;87;21005;-55
2022/07/01 04:02:13;;;;;;;35.88;30.77;;;;;;;30.06;50.52;100180.42;1640243;87;21065;-56
2022/07/01 04:04:40;;;;;;;39.30;34.00;;;;;;;30.28;47.83;100180.30;1629361;87;20956;-61
2022/07/01 04:07:09;;;;;;;41.98;36.98;;;;;;;30.50;46.86;100186.07;1640813;87;21563;-56
2022/07/01 04:09:36;;;;;;;40.73;36.25;;;;;;;30.88;44.67;100183.27;1593132;87;20964;-55
2022/07/01 04:12:04;;;;;;;44.42;34.78;;;;;;;31.22;42.90;100185.05;1641174;87;21597;-56
2022/07/01 04:14:31;;;;;;;43.35;37.17;;;;;;;31.64;41.12;100176.55;1640027;87;21566;-64
2022/07/01 04:16:59;;;;;;;45.75;39.20;;;;;;;32.09;40.81;100182.69;1641076;87;21405;-55
2022/07/01 04:19:26;;;;;;;47.73;41.33;;;;;;;32.63;39.51;100179.23;1640596;87;21274;-56
2022/07/01 04:24:39;;;;;;;50.33;44.55;;;;;;;33.31;37.20;100178.80;1630009;87;20983;-56
2022/07/01 04:27:06;;;;;;;57.20;46.75;;;;;;;33.66;36.49;100176.42;1641200;87;21476;-55
2022/07/01 04:29:33;;;;;;;56.10;49.23;;;;;;;34.02;35.92;100178.30;1604788;89;21069;-56
2022/07/01 04:32:00;;;;;;;60.88;50.55;;;;;;;34.51;34.67;100184.91;1602579;89;21778;-56
2022/07/01 04:34:29;;;;;;;54.90;45.75;;;;;;;34.88;33.70;100177.89;1578756;90;21026;-64
2022/07/01 04:36:57;;;;;;;47.50;41.53;;;;;;;35.24;32.75;100171.46;1588724;90;21410;-56
2022/07/01 04:39:24;;;;;;;42.62;36.45;;;;;;;35.64;32.39;100169.66;1590740;86;22018;-57
2022/07/01 04:42:00;;;;;;;42.35;37.50;;;;;;;36.06;31.55;100167.07;1638425;87;21124;-57
2022/07/01 04:44:30;;;;;;;37.08;33.08;;;;;;;36.41;31.01;100165.63;1622178;88;21267;-56
2022/07/01 04:46:57;;;;;;;36.68;32.60;;;;;;;36.78;30.12;100166.48;1641211;87;21009;-58
2022/07/01 04:49:24;;;;;;;34.65;30.80;;;;;;;37.18;29.99;100165.22;1641425;87;21479;-57
2022/07/01 04:51:51;;;;;;;29.20;26.12;;;;;;;37.66;29.43;100169.63;1636095;87;20994;-57
2022/07/01 04:54:18;;;;;;;33.02;29.15;;;;;;;38.06;28.63;100170.33;1640944;87;20982;-58
2022/07/01 04:56:46;;;;;;;31.23;27.93;;;;;;;38.36;28.27;100169.52;1676144;85;22120;-57
2022/07/01 04:59:13;;;;;;;32.67;26.62;;;;;;;38.70;27.67;100166.15;1640896;87;21029;-58
2022/07/01 05:01:44;;;;;;;32.13;26.90;;;;;;;38.69;27.20;100168.67;1615910;88;21350;-60
2022/07/01 05:04:12;;;;;;;30.25;25.02;;;;;;;38.72;27.38;100169.30;1641361;87;20921;-56
2022/07/01 05:06:39;;;;;;;26.45;23.45;;;;;;;38.95;26.90;100173.20;1666293;85;21375;-56
2022/07/01 05:09:06;;;;;;;28.27;21.90;;;;;;;39.14;26.64;100159.91;1675894;85;21222;-64
2022/07/01 05:11:34;;;;;;;26.00;23.30;;;;;;;39.50;26.46;100166.96;1641097;87;21437;-56
2022/07/01 05:14:01;;;;;;;26.68;22.48;;;;;;;39.76;26.52;100159.13;1676508;85;21049;-56
2022/07/01 05:16:29;;;;;;;25.77;22.10;;;;;;;40.11;25.98;100159.23;1640840;86;21636;-57
2022/07/01 05:21:56;;;;;;;23.65;19.95;;;;;;;40.46;25.66;100159.16;1666287;85;21131;-56
2022/07/01 05:24:28;;;;;;;22.58;19.07;;;;;;;40.74;25.11;100160.38;1676471;85;21074;-57
2022/07/01 05:26:56;;;;;;;21.75;18.65;;;;;;;41.12;24.66;100161.53;1676501;84;21012;-56
2022/07/01 05:29:23;;;;;;;22.75;18.32;;;;;;;41.43;24.16;100158.55;1676135;85;21513;-57
2022/07/01 05:31:50;;;;;;;20.48;18.25;;;;;;;41.60;23.82;100154.78;1637482;87;21062;-57
2022/07/01 05:34:18;;;;;;;21.82;18.12;;;;;;;41.84;23.27;100158.64;1639591;87;21846;-57
2022/07/01 05:36:45;;;;;;;21.77;18.15;;;;;;;41.97;23.67;100156.40;1622798;88;21514;-56
2022/07/01 05:39:12;;;;;;;20.05;18.05;;;;;;;41.98;23.77;100159.94;1639974;86;21569;-57
2022/07/01 05:41:40;;;;;;;18.15;16.35;;;;;;;42.03;23.45;100163.63;1631242;87;21083;-57
2022/07/01 05:44:07;;;;;;;18.32;16.32;;;;;;;42.07;23.51;100154.80;1641030;87;21150;-64
2022/07/01 05:46:36;;;;;;;19.50;17.40;;;;;;;42.14;23.16;100157.49;1636168;87;21245;-57
2022/07/01 05:49:03;;;;;;;19.73;17.42;;;;;;;42.44;23.05;100157.53;1641943;85;21593;-58
2022/07/01 05:51:32;;;;;;;17.70;14.58;;;;;;;42.74;22.13;100159.07;1676240;85;21091;-56
2022/07/01 05:53:59;;;;;;;18.67;16.70;;;;;;;42.72;22.17;100153.20;1641432;87;21002;-58
2022/07/01 05:56:26;;;;;;;19.10;16.37;;;;;;;42.61;22.24;100161.30;1676075;85;21092;-56
2022/07/01 05:58:54;;;;;;;20.20;15.88;;;;;;;42.14;22.71;100160.23;1676862;85;21513;-63
2022/07/01 06:01:21;;;;;;;20.02;15.10;;;;;;;41.73;22.35;100162.16;1639304;87;21499;-56
2022/07/01 06:03:48;;;;;;;14.68;13.13;;;;;;;41.51;22.52;100155.21;1640945;87;21736;-61
2022/07/01 06:06:18;;;;;;;12.15;7.72;;;;;;;41.36;22.53;100154.44;1622231;88;21040;-56
2022/07/01 06:08:44;;;;;;;9.88;5.78;;;;;;;41.12;20.26;100149.23;1641770;87;21100;-57
2022/07/01 06:11:14;;;;;;;9.35;5.58;;;;;;;40.54;19.85;100138.87;1639970;86;21165;-57
2022/07/01 06:13:42;;;;;;;11.43;6.40;;;;;;;39.70;20.11;100139.60;1670613;85;21365;-64
2022/07/01 06:16:10;;;;;;;8.85;6.47;;;;;;;38.93;20.51;100146.90;1676080;85;21024;-55
2022/07/01 06:18:38;;;;;;;11.28;8.13;;;;;;;38.74;20.54;100143.02;1675945;85;21023;-58
2022/07/01 06:21:06;;;;;;;13.18;9.75;;;;;;;38.61;20.82;100142.53;1675804;85;21553;-60
2022/07/01 06:23:33;;;;;;;12.93;10.13;;;;;;;38.56;20.55;100140.14;1675646;85;21140;-57
2022/07/01 06:26:00;;;;;;;12.35;9.65;;;;;;;37.84;21.54;100144.77;1676152;85;20956;-64
2022/07/01 06:28:29;;;;;;;12.50;8.58;;;;;;;38.09;21.22;100134.80;1676141;85;21142;-56
2022/07/01 06:30:57;;;;;;;13.80;10.35;;;;;;;38.12;20.94;100131.33;1676401;85;21081;-63
2022/07/01 06:33:27;;;;;;;13.10;9.83;;;;;;;38.24;21.00;100126.20;1665304;85;21509;-57
2022/07/01 06:35:54;;;;;;;16.97;14.00;;;;;;;38.30;20.87;100125.50;1676365;85;21177;-57
2022/07/01 06:38:21;;;;;;;18.77;14.35;;;;;;;38.33;21.27;100123.36;1640484;87;21099;-57
2022/07/01 06:41:26;;;;;;;17.50;12.82;;;;;;;38.44;21.39;100126.22;1675733;85;21039;-57
2022/07/01 06:43:17;;;;;;;14.63;12.10;;;;;;;38.60;20.77;100124.60;1669215;85;21046;-57
2022/07/01 06:45:44;;;;;;;22.42;15.72;;;;;;;38.52;20.73;100127.06;1672533;85;21016;-56
2022/07/01 06:48:11;;;;;;;21.10;16.77;;;;;;;38.31;20.95;100131.72;1673414;85;22218;-57
2022/07/01 06:50:38;;;;;;;19.87;16.57;;;;;;;38.15;21.60;100126.48;1673272;85;21055;-56
2022/07/01 06:53:06;;;;;;;22.27;16.77;;;;;;;38.14;21.67;100122.98;1673224;85;20947;-63
2022/07/01 06:55:34;;;;;;;21.20;16.95;;;;;;;38.26;21.68;100120.56;1672228;85;21154;-59
2022/07/01 06:58:01;;;;;;;22.13;16.57;;;;;;;38.26;21.37;100118.42;1672557;85;21555;-57
2022/07/01 07:00:29;;;;;;;23.15;17.10;;;;;;;37.82;21.55;100114.44;1672830;85;21228;-58
2022/07/01 07:02:56;;;;;;;24.30;16.67;;;;;;;37.83;21.60;100109.78;1673085;85;21020;-57
2022/07/01 07:05:23;;;;;;;20.70;16.60;;;;;;;38.08;21.67;100114.95;1672067;85;21071;-58
2022/07/01 07:07:51;;;;;;;24.65;19.17;;;;;;;38.08;21.59;100123.13;1672010;85;21453;-62
2022/07/01 07:10:19;;;;;;;21.23;16.35;;;;;;;38.19;21.08;100113.72;1672744;85;21469;-56
2022/07/01 07:12:46;;;;;;;20.75;16.05;;;;;;;38.50;21.32;100122.59;1673627;85;22451;-56
2022/07/01 07:15:14;;;;;;;22.05;14.85;;;;;;;38.89;21.27;100125.66;1673655;85;21047;-56
2022/07/01 07:17:41;;;;;;;22.20;16.12;;;;;;;39.04;21.13;100124.59;1662127;85;21127;-61
2022/07/01 07:20:09;;;;;;;21.05;17.60;;;;;;;39.03;20.33;100121.67;1672973;85;21079;-56
2022/07/01 07:22:36;;;;;;;19.05;15.70;;;;;;;39.00;20.88;100119.70;1672112;85;21453;-57
2022/07/01 07:25:04;;;;;;;21.27;17.10;;;;;;;39.13;20.96;100124.25;1673612;85;21433;-57
2022/07/01 07:27:31;;;;;;;21.27;16.42;;;;;;;39.23;20.21;100118.09;1673087;85;21043;-57
2022/07/01 07:29:59;;;;;;;21.42;17.20;;;;;;;39.22;20.43;100117.12;1671630;85;21019;-58
2022/07/01 07:32:28;;;;;;;20.80;15.70;;;;;;;39.28;20.42;100116.97;1673961;85;22015;-55
2022/07/01 07:34:56;;;;;;;21.27;16.35;;;;;;;39.50;20.08;100122.73;1673760;85;21008;-55
2022/07/01 07:37:23;;;;;;;19.02;15.35;;;;;;;39.53;20.26;100113.02;1674557;85;21231;-56
2022/07/01 07:39:50;;;;;;;15.88;12.47;;;;;;;39.50;20.51;100115.91;1672765;85;20976;-63
2022/07/01 07:42:17;;;;;;;14.05;10.45;;;;;;;39.56;20.74;100109.52;1669614;85;21558;-56
2022/07/01 07:44:44;;;;;;;14.35;10.68;;;;;;;39.62;20.49;100114.79;1669259;85;21487;-56
2022/07/01 07:47:12;;;;;;;16.15;11.78;;;;;;;39.49;20.47;100108.13;1669470;85;20940;-56
2022/07/01 07:49:39;;;;;;;14.80;10.63;;;;;;;39.59;20.25;100106.81;1669699;85;21299;-63
2022/07/01 07:52:06;;;;;;;13.13;10.30;;;;;;;39.80;20.18;100105.34;1667977;85;20997;-56
2022/07/01 07:54:34;;;;;;;12.53;9.65;;;;;;;39.68;20.59;100096.12;1669301;85;21097;-56
2022/07/01 07:57:01;;;;;;;15.53;10.40;;;;;;;39.82;20.50;100100.30;1669701;85;21610;-57
2022/07/01 07:59:29;;;;;;;13.32;10.32;;;;;;;39.97;19.86;100085.52;1668750;85;20973;-57
2022/07/01 08:01:56;;;;;;;14.13;10.75;;;;;;;39.98;19.47;100082.20;1668410;85;21174;-66
2022/07/01 10:41:26;;;;;;;15.70;12.55;;;;;;;35.50;22.49;99996.08;1785169;78;28548;-57
2022/07/01 10:43:56;;;;;;;13.48;11.22;;;;;;;35.44;23.00;100006.17;1749768;81;21065;-59
2022/07/01 10:46:58;;;;;;;15.90;13.38;;;;;;;35.52;23.22;99999.20;1741744;81;21450;-64
2022/07/01 10:49:43;;;;;;;14.58;12.58;;;;;;;35.66;22.79;99997.34;1747430;80;21002;-65
2022/07/01 10:52:18;;;;;;;17.92;13.53;;;;;;;35.75;22.92;99991.69;1741542;80;21027;-59
2022/07/01 10:54:48;;;;;;;14.18;11.95;;;;;;;35.66;23.12;99987.07;1736223;80;20946;-56
2022/07/01 10:57:24;;;;;;;;;;;;;;;35.46;23.00;99989.77;1748126;80;20943;-58
2022/07/01 11:00:06;;;;;;;17.67;14.83;;;;;;;35.35;23.03;99988.77;1753233;80;21928;-57
2022/07/01 11:02:37;;;;;;;17.30;15.20;;;;;;;35.27;23.20;99980.27;1737525;81;20993;-56
2022/07/01 11:05:14;;;;;;;22.58;19.05;;;;;;;35.38;22.15;99984.55;1735499;80;20874;-58
2022/07/01 11:07:45;;;;;;;21.00;18.82;;;;;;;35.14;22.56;99971.50;1733611;81;21055;-57
2022/07/01 11:10:19;;;;;;;23.80;17.25;;;;;;;34.99;23.16;99971.77;1741930;80;21000;-58
2022/07/01 11:12:46;;;;;;;19.12;17.17;;;;;;;34.90;22.82;99975.80;1738319;80;21342;-61
2022/07/01 11:15:15;;;;;;;19.00;17.00;;;;;;;34.84;22.60;99969.28;1741259;81;21322;-65
2022/07/01 11:17:48;;;;;;;14.90;13.22;;;;;;;34.82;22.70;99968.09;1751849;80;20990;-57
2022/07/01 11:20:16;;;;;;;15.68;12.60;;;;;;;34.92;22.51;99958.61;1729790;80;21547;-58
2022/07/01 11:22:43;;;;;;;12.93;11.03;;;;;;;34.90;22.57;99965.74;1739895;80;21054;-56
2022/07/01 11:25:12;;;;;;;14.58;10.98;;;;;;;34.85;22.87;99957.33;1740834;81;21093;-63
2022/07/01 11:27:40;;;;;;;14.60;12.07;;;;;;;34.81;23.44;99963.78;1733410;80;20932;-58
2022/07/01 11:30:12;;;;;;;17.73;12.63;;;;;;;34.89;23.68;99951.97;1730206;80;20935;-57
2022/07/01 11:32:50;;;;;;;19.95;17.92;;;;;;;34.93;23.95;99951.50;1725769;81;21025;-57
2022/07/01 11:41:06;;;;;;;19.60;17.60;;;;;;;34.81;23.26;99947.54;1735025;81;21064;-57
2022/07/01 11:43:37;;;;;;;17.40;15.70;;;;;;;34.78;22.59;99940.93;1749119;80;20890;-56
2022/07/01 11:46:05;;;;;;;14.70;12.23;;;;;;;34.81;23.00;99942.13;1701373;81;21055;-56
2022/07/01 11:48:45;;;;;;;15.60;13.70;;;;;;;34.79;23.10;99945.77;1753527;80;22321;-58
2022/07/01 11:51:15;;;;;;;16.52;14.85;;;;;;;34.45;23.96;99950.78;1741901;81;21113;-56
2022/07/01 11:53:46;;;;;;;15.03;13.35;;;;;;;33.99;23.92;99950.45;1730105;81;20987;-58
2022/07/01 11:56:13;;;;;;;;;;;;;;;33.75;24.09;99950.55;1755730;80;21034;-57
2022/07/01 11:58:51;;;;;;;15.90;12.18;;;;;;;33.76;24.18;99946.73;1737542;81;20165;-57
2022/07/01 12:01:31;;;;;;;14.53;12.28;;;;;;;33.77;24.86;99942.89;1743613;80;20984;-57
2022/07/01 12:04:02;;;;;;;15.07;13.23;;;;;;;33.83;24.85;99952.30;1751541;80;21506;-67
2022/07/01 12:06:29;;;;;;;17.35;13.18;;;;;;;33.95;24.87;99942.78;1735661;81;21392;-58
2022/07/01 12:08:57;;;;;;;15.15;13.35;;;;;;;33.94;23.89;99945.25;1735472;82;21040;-57
2022/07/01 12:11:26;;;;;;;15.20;12.85;;;;;;;33.92;23.44;99945.39;1751995;80;20974;-64
2022/07/01 12:13:53;;;;;;;14.25;11.83;;;;;;;33.78;23.27;99943.10;1734610;80;21570;-65
2022/07/01 12:16:22;;;;;;;12.60;10.45;;;;;;;33.68;22.85;99940.35;1749556;80;21238;-56
2022/07/01 12:19:02;;;;;;;16.45;12.37;;;;;;;33.61;23.03;99940.16;1734008;80;20963;-56
2022/07/01 12:21:33;;;;;;;21.37;19.17;;;;;;;33.72;22.35;99951.23;1735014;81;21026;-57
2022/07/01 12:24:13;;;;;;;21.65;19.45;;;;;;;33.72;22.27;99941.77;1726901;81;21009;-57
2022/07/01 12:27:02;;;;;;;18.17;16.37;;;;;;;33.72;21.94;99938.53;1735212;80;21053;-58
2022/07/01 12:29:47;;;;;;;17.95;16.15;;;;;;;33.71;23.14;99940.20;1740223;81;22325;-57
2022/07/01 12:32:17;;;;;;;17.40;15.70;;;;;;;33.59;23.58;99933.73;1739997;80;21487;-64
2022/07/01 12:34:49;;;;;;;18.70;16.65;;;;;;;33.69;24.18;99930.32;1734852;81;21847;-58
2022/07/01 12:37:29;;;;;;;21.48;19.17;;;;;;;33.81;23.51;99923.48;1736188;80;22009;-55
2022/07/01 12:40:00;;;;;;;23.62;20.05;;;;;;;33.70;23.88;99927.83;1727366;81;21119;-64
2022/07/01 12:42:40;;;;;;;26.25;22.60;;;;;;;33.61;24.10;99917.97;1745015;80;21895;-56
2022/07/01 12:45:13;;;;;;;21.68;19.55;;;;;;;33.60;23.71;99924.52;1745740;82;28179;-56
2022/07/01 12:47:46;;;;;;;18.15;15.15;;;;;;;33.55;24.15;99910.45;1722199;82;20979;-63
2022/07/01 12:50:24;;;;;;;16.55;13.68;;;;;;;33.45;24.46;99920.38;1744889;80;21283;-62
2022/07/01 12:53:04;;;;;;;13.00;9.83;;;;;;;33.43;24.11;99914.76;1739434;80;21055;-55
2022/07/01 12:55:45;;;;;;;13.20;9.03;;;;;;;33.29;24.09;99917.63;1708945;82;21536;-57
2022/07/01 12:58:18;;;;;;;12.53;8.88;;;;;;;33.13;23.71;99914.31;1685069;83;21049;-57
2022/07/01 13:00:48;;;;;;;13.10;10.75;;;;;;;33.12;23.64;99910.62;1687923;83;20944;-55
2022/07/01 13:03:20;;;;;;;17.95;12.88;;;;;;;33.16;23.76;99913.63;1676040;83;20951;-63
2022/07/01 13:05:47;;;;;;;16.87;14.35;;;;;;;32.97;24.08;99911.34;1660698;84;21490;-55
2022/07/01 13:08:17;;;;;;;15.88;11.33;;;;;;;32.87;24.69;99915.25;1675053;83;21165;-56
2022/07/01 13:10:44;;;;;;;13.60;11.08;;;;;;;32.88;24.94;99914.12;1657502;85;21581;-56
2022/07/01 13:13:14;;;;;;;17.23;11.97;;;;;;;32.75;25.18;99928.78;1700389;82;20964;-58
2022/07/01 13:15:44;;;;;;;15.25;13.00;;;;;;;32.55;24.60;99921.84;1668266;85;21009;-56
2022/07/01 13:18:14;;;;;;;12.98;10.90;;;;;;;32.34;24.92;99915.17;1712345;82;21502;-55
2022/07/01 13:20:43;;;;;;;13.50;10.95;;;;;;;32.08;25.02;99918.19;1682570;83;21307;-55
2022/07/01 13:23:10;;;;;;;16.30;11.10;;;;;;;32.05;25.12;99917.53;1662754;85;21574;-63
2022/07/01 13:25:38;;;;;;;15.93;12.70;;;;;;;32.07;25.49;99915.27;1669392;83;21567;-56
2022/07/01 13:28:06;;;;;;;18.15;13.93;;;;;;;32.04;24.96;99915.94;1680265;83;21141;-57
2022/07/01 13:30:37;;;;;;;13.38;11.25;;;;;;;31.96;24.98;99920.31;1687984;83;21138;-57
2022/07/01 13:33:04;;;;;;;14.65;10.72;;;;;;;31.88;25.06;99918.50;1705402;82;22429;-62
2022/07/01 13:35:31;;;;;;;10.53;8.58;;;;;;;31.74;25.31;99916.63;1691099;82;22045;-57
2022/07/01 13:38:01;;;;;;;11.97;8.63;;;;;;;31.68;26.02;99912.03;1687675;84;21009;-56
2022/07/01 13:40:28;;;;;;;11.85;7.97;;;;;;;31.68;25.93;99912.03;1711176;82;21016;-56
2022/07/01 13:42:56;;;;;;;11.97;9.70;;;;;;;31.60;26.16;99911.56;1695495;84;21003;-64
2022/07/01 13:45:26;;;;;;;12.33;9.90;;;;;;;31.58;26.98;99911.66;1731047;82;21142;-64
2022/07/01 13:47:53;;;;;;;13.62;10.70;;;;;;;31.56;26.29;99912.00;1721703;80;21106;-57
2022/07/01 13:50:21;;;;;;;14.78;12.10;;;;;;;31.47;25.90;99909.94;1719771;82;21016;-58
2022/07/01 13:52:49;;;;;;;15.00;13.40;;;;;;;31.47;25.90;99909.94;1707118;82;20986;-56
2022/07/01 13:55:18;;;;;;;13.98;12.05;;;;;;;31.49;25.95;99914.45;1706151;82;21334;-63
2022/07/01 13:57:47;;;;;;;16.57;12.37;;;;;;;31.33;26.27;99914.28;1712375;82;21492;-56
2022/07/01 14:00:17;;;;;;;17.25;13.48;;;;;;;31.19;26.55;99914.52;1735370;80;20995;-57
2022/07/01 14:02:45;;;;;;;17.98;15.18;;;;;;;30.94;27.21;99906.86;1739191;80;20967;-55
2022/07/01 14:05:12;;;;;;;18.95;16.52;;;;;;;30.94;27.21;99906.86;1739810;80;20968;-63
2022/07/01 14:07:40;;;;;;;20.23;17.23;;;;;;;30.96;27.04;99905.98;1733942;82;21492;-57
2022/07/01 14:10:10;;;;;;;19.15;14.93;;;;;;;30.93;27.51;99909.89;1716913;82;21176;-56